createdAt,value
2023-03-24T00:00:20.248Z,85.64
2023-03-24T00:02:48.584Z,85.90
2023-03-24T00:05:17.147Z,86.26
2023-03-24T00:07:46.652Z,86.21
2023-03-24T00:10:18.840Z,86.74
2023-03-24T00:12:46.764Z,86.96
2023-03-24T00:15:16.510Z,87.26
2023-03-24T00:17:43.129Z,87.33
2023-03-24T00:20:16.934Z,87.77
2023-03-24T00:22:49.556Z,88.28
2023-03-24T00:25:23.831Z,88.63
2023-03-24T00:27:51.342Z,88.31
2023-03-24T00:30:19.141Z,88.42
2023-03-24T00:32:48.972Z,88.47
2023-03-24T00:35:17.713Z,88.84
2023-03-24T00:37:45.312Z,88.88
2023-03-24T00:40:17.495Z,89.09
2023-03-24T00:42:46.073Z,89.05
2023-03-24T00:45:18.071Z,89.30
2023-03-24T00:47:44.889Z,89.15
2023-03-24T00:50:17.859Z,89.84
2023-03-24T00:52:47.784Z,89.97
2023-03-24T00:55:16.315Z,90.07
2023-03-24T00:57:51.281Z,91.23
2023-03-24T01:00:24.857Z,91.61
2023-03-24T01:02:54.588Z,91.76
2023-03-24T01:05:23.477Z,92.05
2023-03-24T01:07:53.485Z,92.44
2023-03-24T01:10:26.941Z,92.62
2023-03-24T01:12:56.505Z,93.10
2023-03-24T01:15:26.377Z,93.15
2023-03-24T01:17:53.394Z,93.29
2023-03-24T01:20:20.716Z,93.69
2023-03-24T01:22:47.342Z,93.77
2023-03-24T01:25:16.797Z,94.44
2023-03-24T01:27:44.655Z,94.16
2023-03-24T01:30:19.240Z,94.92
2023-03-24T01:32:45.888Z,94.95
2023-03-24T01:35:12.751Z,95.32
2023-03-24T01:37:41.291Z,95.32
2023-03-24T01:40:12.677Z,95.26
2023-03-24T01:42:40.342Z,95.44
2023-03-24T01:45:43.990Z,96.43
2023-03-24T01:48:22.481Z,95.77
2023-03-24T01:51:09.337Z,96.12
2023-03-24T01:53:38.806Z,96.07
2023-03-24T01:56:07.534Z,95.87
2023-03-24T01:58:36.788Z,96.16
2023-03-24T02:01:04.913Z,96.26
2023-03-24T02:03:40.269Z,96.66
2023-03-24T02:06:08.517Z,96.43
2023-03-24T02:08:55.377Z,97.05
2023-03-24T02:11:24.324Z,96.56
2023-03-24T02:13:51.206Z,96.60
2023-03-24T02:16:43.155Z,97.68
2023-03-24T02:19:44.810Z,97.46
2023-03-24T02:22:45.457Z,98.22
2023-03-24T02:25:15.459Z,97.14
2023-03-24T02:28:21.116Z,98.00
2023-03-24T02:31:16.311Z,97.56
2023-03-24T02:34:14.338Z,98.18
2023-03-24T02:37:05.608Z,98.08
2023-03-24T02:39:38.310Z,98.57
2023-03-24T02:42:29.754Z,98.82
2023-03-24T02:45:13.406Z,98.98
2023-03-24T02:48:01.760Z,98.71
2023-03-24T02:50:37.062Z,98.59
2023-03-24T02:53:32.100Z,99.04
2023-03-24T02:56:16.674Z,99.13
2023-03-24T02:58:54.180Z,99.07
2023-03-24T03:01:32.178Z,99.19
2023-03-24T03:04:18.097Z,99.94
2023-03-24T03:06:52.487Z,99.72
2023-03-24T03:09:21.407Z,99.27
2023-03-24T03:11:53.076Z,99.55
2023-03-24T03:14:30.692Z,100.00
2023-03-24T03:17:09.401Z,100.00
2023-03-24T03:19:43.852Z,100.00
2023-03-24T03:22:19.153Z,100.00
2023-03-24T03:24:50.504Z,100.00
2023-03-24T03:27:27.278Z,100.00
2023-03-24T03:30:00.430Z,100.00
2023-03-24T03:32:32.032Z,100.00
2023-03-24T03:35:40.153Z,100.00
2023-03-24T03:38:37.434Z,100.00
2023-03-24T03:41:05.559Z,100.00
2023-03-24T03:43:34.038Z,100.00
2023-03-24T03:46:01.772Z,100.00
2023-03-24T03:48:29.224Z,100.00
2023-03-24T03:51:10.181Z,100.00
2023-03-24T03:53:52.568Z,100.00
2023-03-24T03:56:22.680Z,100.00
2023-03-24T03:58:50.112Z,100.00
2023-03-24T04:01:23.214Z,100.00
2023-03-24T04:04:11.430Z,100.00
2023-03-24T04:06:50.387Z,100.00
2023-03-24T04:09:54.111Z,100.00
2023-03-24T04:12:39.761Z,100.00
2023-03-24T04:15:25.451Z,100.00
2023-03-24T04:18:10.279Z,100.00
2023-03-24T04:20:46.559Z,100.00
2023-03-24T04:23:28.012Z,100.00
2023-03-24T04:26:45.703Z,100.00
2023-03-24T04:29:17.873Z,100.00
2023-03-24T04:31:44.487Z,100.00
2023-03-24T04:34:25.996Z,100.00
2023-03-24T04:37:04.055Z,100.00
2023-03-24T04:39:35.572Z,100.00
2023-03-24T04:42:06.108Z,100.00
2023-03-24T04:44:33.284Z,100.00
2023-03-24T04:47:03.087Z,100.00
2023-03-24T04:49:29.609Z,100.00
2023-03-24T04:51:56.218Z,100.00
2023-03-24T04:54:23.389Z,100.00
2023-03-24T04:56:54.949Z,100.00
2023-03-24T04:59:21.424Z,100.00
2023-03-24T05:01:53.865Z,100.00
2023-03-24T05:04:23.313Z,100.00
2023-03-24T05:06:49.876Z,100.00
2023-03-24T05:09:24.045Z,100.00
2023-03-24T05:11:51.765Z,100.00
2023-03-24T05:14:18.643Z,100.00
2023-03-24T05:16:47.592Z,100.00
2023-03-24T05:19:14.182Z,100.00
2023-03-24T05:21:41.015Z,100.00
2023-03-24T05:24:07.601Z,100.00
2023-03-24T05:26:34.562Z,100.00
2023-03-24T05:29:01.986Z,100.00
2023-03-24T05:31:28.692Z,100.00
2023-03-24T05:33:55.611Z,100.00
2023-03-24T05:36:22.127Z,100.00
2023-03-24T05:38:48.556Z,100.00
2023-03-24T05:41:15.000Z,100.00
2023-03-24T05:43:41.511Z,100.00
2023-03-24T05:46:08.116Z,100.00
2023-03-24T05:48:34.763Z,100.00
2023-03-24T05:51:01.709Z,100.00
2023-03-24T05:53:28.196Z,100.00
2023-03-24T05:55:54.823Z,100.00
2023-03-24T05:58:21.470Z,100.00
2023-03-24T06:00:48.394Z,100.00
2023-03-24T06:03:17.277Z,100.00
2023-03-24T06:05:46.039Z,100.00
2023-03-24T06:08:12.996Z,100.00
2023-03-24T06:10:40.632Z,100.00
2023-03-24T06:13:09.103Z,100.00
2023-03-24T06:15:36.762Z,100.00
2023-03-24T06:18:05.300Z,100.00
2023-03-24T06:20:32.102Z,100.00
2023-03-24T06:23:00.223Z,100.00
2023-03-24T06:25:28.681Z,100.00
2023-03-24T06:27:55.366Z,100.00
2023-03-24T06:30:22.046Z,100.00
2023-03-24T06:32:48.734Z,100.00
2023-03-24T06:35:16.924Z,100.00
2023-03-24T06:37:43.773Z,100.00
2023-03-24T06:40:13.925Z,100.00
2023-03-24T06:42:40.343Z,100.00
2023-03-24T06:45:08.077Z,100.00
2023-03-24T06:47:34.694Z,100.00
2023-03-24T06:50:01.438Z,100.00
2023-03-24T06:52:28.417Z,100.00
2023-03-24T06:54:54.963Z,100.00
2023-03-24T06:57:21.759Z,100.00
2023-03-24T06:59:49.109Z,100.00
2023-03-24T07:02:15.983Z,100.00
2023-03-24T07:04:42.729Z,100.00
2023-03-24T07:07:30.985Z,100.00
2023-03-24T07:09:56.572Z,100.00
2023-03-24T07:12:23.109Z,98.48
2023-03-24T07:14:49.573Z,96.88
2023-03-24T07:17:16.435Z,95.37
2023-03-24T07:19:44.822Z,94.52
2023-03-24T07:22:12.268Z,94.19
2023-03-24T07:24:38.787Z,93.65
2023-03-24T07:27:05.316Z,93.01
2023-03-24T07:29:31.741Z,92.94
2023-03-24T07:32:01.595Z,92.91
2023-03-24T07:34:28.885Z,91.40
2023-03-24T07:36:55.571Z,88.90
2023-03-24T07:39:22.189Z,87.62
2023-03-24T07:41:48.620Z,87.93
2023-03-24T07:44:15.132Z,88.27
2023-03-24T07:46:41.619Z,87.71
2023-03-24T07:49:18.057Z,87.81
2023-03-24T07:51:45.645Z,87.74
2023-03-24T07:54:12.169Z,87.60
2023-03-24T07:56:38.705Z,86.20
2023-03-24T07:59:05.340Z,84.99
2023-03-24T08:01:32.807Z,82.34
2023-03-24T08:03:59.861Z,80.03
2023-03-24T08:06:26.423Z,80.60
2023-03-24T08:08:53.308Z,80.19
2023-03-24T08:11:19.724Z,79.34
2023-03-24T08:13:46.398Z,79.71
2023-03-24T08:16:12.966Z,78.00
2023-03-24T08:18:39.437Z,78.02
2023-03-24T08:21:06.533Z,78.61
2023-03-24T08:23:33.283Z,78.63
2023-03-24T08:25:59.810Z,78.60
2023-03-24T08:28:26.302Z,77.10
2023-03-24T08:30:52.775Z,75.24
2023-03-24T08:33:19.252Z,75.23
2023-03-24T08:35:46.861Z,73.81
2023-03-24T08:38:18.777Z,73.52
2023-03-24T08:40:45.713Z,74.65
2023-03-24T08:43:16.076Z,72.90
2023-03-24T08:45:42.986Z,72.03
2023-03-24T08:48:10.334Z,71.97
2023-03-24T08:50:41.886Z,71.46
2023-03-24T08:53:09.138Z,71.71
2023-03-24T08:55:37.726Z,71.36
2023-03-24T08:58:04.283Z,69.65
2023-03-24T09:00:31.538Z,67.33
2023-03-24T09:02:58.527Z,67.71
2023-03-24T09:05:40.963Z,66.99
2023-03-24T09:08:10.756Z,67.35
2023-03-24T09:10:37.398Z,65.56
2023-03-24T09:13:04.525Z,65.17
2023-03-24T09:15:31.602Z,65.34
2023-03-24T09:17:58.082Z,64.91
2023-03-24T09:20:25.667Z,63.69
2023-03-24T09:22:52.382Z,62.40
2023-03-24T09:25:20.705Z,63.14
2023-03-24T09:27:47.173Z,61.80
2023-03-24T09:30:16.001Z,62.54
2023-03-24T09:32:42.556Z,62.61
2023-03-24T09:35:09.445Z,61.66
2023-03-24T09:37:37.233Z,61.19
2023-03-24T09:40:04.987Z,61.55
2023-03-24T09:42:38.524Z,61.97
2023-03-24T09:45:13.500Z,62.04
2023-03-24T09:47:49.184Z,62.27
2023-03-24T09:50:27.057Z,62.50
2023-03-24T09:52:57.221Z,60.44
2023-03-24T09:55:28.062Z,61.70
2023-03-24T09:58:01.627Z,61.00
2023-03-24T10:00:31.643Z,61.42
2023-03-24T10:03:01.928Z,61.74
2023-03-24T10:05:40.693Z,62.32
2023-03-24T10:08:13.127Z,62.89
2023-03-24T10:11:21.455Z,62.61
2023-03-24T10:14:04.338Z,62.50
2023-03-24T10:16:49.497Z,63.09
2023-03-24T10:19:36.872Z,62.42
2023-03-24T10:22:19.189Z,61.50
2023-03-24T10:24:51.288Z,60.70
2023-03-24T10:27:30.485Z,59.81
2023-03-24T10:30:07.124Z,58.97
2023-03-24T10:32:35.630Z,58.62
2023-03-24T10:35:09.008Z,58.71
2023-03-24T10:37:37.004Z,58.33
2023-03-24T10:40:12.192Z,57.69
2023-03-24T10:42:38.672Z,57.91
2023-03-24T10:45:06.097Z,57.88
2023-03-24T10:47:33.961Z,58.32
2023-03-24T10:50:11.961Z,57.17
2023-03-24T10:52:41.752Z,58.19
2023-03-24T10:55:16.586Z,57.17
2023-03-24T10:57:48.877Z,57.20
2023-03-24T11:00:29.790Z,57.78
2023-03-24T11:02:59.254Z,58.07
2023-03-24T11:05:30.650Z,58.27
2023-03-24T11:08:12.859Z,57.54
2023-03-24T11:10:39.785Z,56.90
2023-03-24T11:13:19.005Z,57.48
2023-03-24T11:16:14.182Z,57.20
2023-03-24T11:19:01.855Z,58.51
2023-03-24T11:21:30.506Z,55.87
2023-03-24T11:24:03.765Z,56.52
2023-03-24T11:26:32.213Z,55.85
2023-03-24T11:29:01.983Z,55.82
2023-03-24T11:31:38.244Z,57.04
2023-03-24T11:34:20.242Z,55.96
2023-03-24T11:36:50.828Z,53.84
2023-03-24T11:39:23.354Z,52.68
2023-03-24T11:42:27.190Z,50.50
2023-03-24T11:44:55.346Z,50.66
2023-03-24T11:47:31.868Z,50.56
2023-03-24T11:50:14.883Z,49.23
2023-03-24T11:52:54.905Z,50.53
2023-03-24T11:55:32.604Z,50.61
2023-03-24T11:58:04.292Z,51.17
2023-03-24T12:00:41.172Z,48.46
2023-03-24T12:03:38.088Z,47.83
2023-03-24T12:06:23.392Z,48.01
2023-03-24T12:09:22.490Z,47.20
2023-03-24T12:12:18.500Z,46.56
2023-03-24T12:15:03.010Z,46.40
2023-03-24T12:17:41.971Z,45.79
2023-03-24T12:20:18.174Z,44.54
2023-03-24T12:22:58.104Z,44.19
2023-03-24T12:25:43.176Z,44.59
2023-03-24T12:28:09.666Z,42.13
2023-03-24T12:31:05.508Z,42.22
2023-03-24T12:33:41.044Z,42.42
2023-03-24T12:36:10.652Z,41.56
2023-03-24T12:38:54.432Z,41.83
2023-03-24T12:42:06.128Z,38.90
2023-03-24T12:44:49.647Z,40.17
2023-03-24T12:47:34.608Z,39.69
2023-03-24T12:50:23.449Z,39.78
2023-03-24T12:55:48.402Z,38.58
2023-03-24T12:58:28.814Z,39.95
2023-03-24T13:01:04.505Z,40.10
2023-03-24T13:03:41.326Z,40.37
2023-03-24T13:06:33.401Z,41.47
2023-03-24T13:09:13.861Z,39.63
2023-03-24T13:11:53.434Z,39.80
2023-03-24T13:14:27.375Z,39.90
2023-03-24T13:17:00.560Z,38.08
2023-03-24T13:19:27.348Z,39.70
2023-03-24T13:21:55.853Z,40.25
2023-03-24T13:24:22.684Z,41.14
2023-03-24T13:27:08.251Z,42.25
2023-03-24T13:30:00.055Z,41.73
2023-03-24T13:32:34.656Z,40.86
2023-03-24T13:35:12.500Z,39.91
2023-03-24T13:37:43.314Z,40.07
2023-03-24T13:40:19.866Z,40.75
2023-03-24T13:42:52.622Z,41.35
2023-03-24T13:45:27.272Z,40.35
2023-03-24T13:48:10.410Z,41.38
2023-03-24T13:50:51.865Z,41.76
2023-03-24T13:53:19.407Z,40.83
2023-03-24T13:55:50.528Z,40.21
2023-03-24T13:58:26.181Z,39.68
2023-03-24T14:01:31.626Z,39.12
2023-03-24T14:04:19.863Z,38.53
2023-03-24T14:06:55.207Z,37.81
2023-03-24T14:09:30.645Z,37.51
2023-03-24T14:11:57.078Z,37.05
2023-03-24T14:14:26.264Z,36.05
2023-03-24T14:17:08.009Z,37.08
2023-03-24T14:20:02.005Z,37.05
2023-03-24T14:22:32.970Z,36.47
2023-03-24T14:25:02.079Z,35.92
2023-03-24T14:27:36.496Z,36.84
2023-03-24T14:30:26.129Z,36.83
2023-03-24T14:32:58.317Z,36.23
2023-03-24T14:35:34.442Z,36.40
2023-03-24T14:38:19.384Z,35.35
2023-03-24T14:40:52.751Z,34.99
2023-03-24T14:43:30.518Z,36.50
2023-03-24T14:46:00.250Z,36.33
2023-03-24T14:48:34.643Z,35.99
2023-03-24T14:51:07.062Z,35.58
2023-03-24T14:53:36.563Z,35.44
2023-03-24T14:56:04.343Z,36.26
2023-03-24T14:58:36.509Z,36.78
2023-03-24T15:01:07.642Z,36.96
2023-03-24T15:03:45.923Z,35.09
2023-03-24T15:06:16.507Z,34.29
2023-03-24T15:08:51.392Z,34.48
2023-03-24T15:11:24.317Z,34.88
2023-03-24T15:13:53.360Z,34.77
2023-03-24T15:16:31.659Z,35.09
2023-03-24T15:19:02.469Z,35.35
2023-03-24T15:21:29.288Z,34.55
2023-03-24T15:23:57.721Z,35.02
2023-03-24T15:26:25.540Z,35.05
2023-03-24T15:29:01.090Z,34.83
2023-03-24T15:31:30.580Z,36.01
2023-03-24T15:34:04.609Z,35.52
2023-03-24T15:36:40.645Z,34.97
2023-03-24T15:39:18.910Z,35.25
2023-03-24T15:41:49.561Z,35.89
2023-03-24T15:44:20.795Z,36.56
2023-03-24T15:46:49.069Z,37.01
2023-03-24T15:49:33.397Z,37.60
2023-03-24T15:52:03.210Z,37.69
2023-03-24T15:54:44.572Z,38.50
2023-03-24T15:57:18.561Z,37.77
2023-03-24T15:59:49.828Z,37.76
2023-03-24T16:02:43.287Z,37.69
2023-03-24T16:05:29.338Z,38.13
2023-03-24T16:08:05.839Z,37.92
2023-03-24T16:10:45.096Z,38.35
2023-03-24T16:13:17.528Z,38.36
2023-03-24T16:15:52.997Z,38.72
2023-03-24T16:18:25.319Z,39.49
2023-03-24T16:20:52.418Z,39.97
2023-03-24T16:23:18.932Z,40.37
2023-03-24T16:25:45.758Z,40.90
2023-03-24T16:28:13.937Z,41.21
2023-03-24T16:30:42.686Z,41.44
2023-03-24T16:33:09.628Z,42.06
2023-03-24T16:35:36.615Z,42.29
2023-03-24T16:38:03.374Z,43.00
2023-03-24T16:40:37.028Z,42.88
2023-03-24T16:43:03.942Z,43.58
2023-03-24T16:45:31.412Z,43.89
2023-03-24T16:47:59.388Z,44.36
2023-03-24T16:50:37.683Z,44.78
2023-03-24T16:53:04.758Z,45.14
2023-03-24T16:55:32.277Z,45.74
2023-03-24T16:57:58.792Z,45.66
2023-03-24T17:00:25.537Z,46.13
2023-03-24T17:02:53.799Z,46.48
2023-03-24T17:05:28.329Z,46.92
2023-03-24T17:07:56.476Z,47.31
2023-03-24T17:10:27.417Z,47.78
2023-03-24T17:12:57.611Z,48.13
2023-03-24T17:15:25.765Z,48.41
2023-03-24T17:17:52.865Z,49.18
2023-03-24T17:20:20.816Z,49.58
2023-03-24T17:22:49.420Z,49.91
2023-03-24T17:25:19.165Z,50.19
2023-03-24T17:27:45.775Z,50.47
2023-03-24T17:30:20.286Z,51.21
2023-03-24T17:32:47.561Z,51.61
2023-03-24T17:35:19.677Z,51.74
2023-03-24T17:37:46.498Z,52.09
2023-03-24T17:40:15.466Z,52.25
2023-03-24T17:42:46.222Z,52.23
2023-03-24T17:45:16.322Z,52.46
2023-03-24T17:47:43.003Z,52.82
2023-03-24T17:50:09.993Z,53.00
2023-03-24T17:52:37.724Z,53.46
2023-03-24T17:55:05.544Z,53.66
2023-03-24T17:57:32.761Z,54.02
2023-03-24T17:59:59.361Z,54.57
2023-03-24T18:02:26.525Z,55.08
2023-03-24T18:04:54.345Z,55.48
2023-03-24T18:07:20.858Z,55.87
2023-03-24T18:09:47.287Z,56.75
2023-03-24T18:12:13.789Z,57.65
2023-03-24T18:14:40.916Z,58.44
2023-03-24T18:17:07.442Z,59.01
2023-03-24T18:19:34.014Z,59.30
2023-03-24T18:22:00.536Z,59.81
2023-03-24T18:24:27.133Z,60.00
2023-03-24T18:26:53.550Z,60.26
2023-03-24T18:29:23.737Z,60.44
2023-03-24T18:31:50.564Z,60.28
2023-03-24T18:34:17.976Z,60.76
2023-03-24T18:36:46.572Z,60.43
2023-03-24T18:39:13.171Z,61.00
2023-03-24T18:41:39.895Z,61.03
2023-03-24T18:44:09.268Z,61.58
2023-03-24T18:46:36.857Z,61.92
2023-03-24T18:49:03.994Z,62.03
2023-03-24T18:51:32.953Z,62.35
2023-03-24T18:53:59.410Z,62.60
2023-03-24T18:56:28.852Z,62.92
2023-03-24T18:58:55.697Z,63.25
2023-03-24T19:01:23.018Z,63.54
2023-03-24T19:03:51.237Z,63.59
2023-03-24T19:06:18.528Z,63.88
2023-03-24T19:08:50.361Z,64.39
2023-03-24T19:11:17.113Z,64.31
2023-03-24T19:13:46.150Z,65.11
2023-03-24T19:16:12.813Z,65.25
2023-03-24T19:18:39.327Z,66.02
2023-03-24T19:21:06.870Z,66.16
2023-03-24T19:23:34.404Z,66.36
2023-03-24T19:26:01.569Z,66.44
2023-03-24T19:28:30.541Z,66.23
2023-03-24T19:30:59.163Z,66.58
2023-03-24T19:33:26.805Z,66.77
2023-03-24T19:35:53.830Z,67.40
2023-03-24T19:38:24.547Z,67.67
2023-03-24T19:40:54.369Z,67.13
2023-03-24T19:43:22.468Z,68.31
2023-03-24T19:45:53.832Z,68.70
2023-03-24T19:48:20.982Z,68.85
2023-03-24T19:50:51.021Z,69.63
2023-03-24T19:53:17.901Z,70.07
2023-03-24T19:55:44.377Z,69.66
2023-03-24T19:58:11.260Z,70.13
2023-03-24T20:00:37.774Z,70.11
2023-03-24T20:03:04.500Z,70.37
2023-03-24T20:05:31.169Z,69.99
2023-03-24T20:08:00.069Z,70.68
2023-03-24T20:10:27.401Z,70.40
2023-03-24T20:12:54.774Z,70.49
2023-03-24T20:15:21.784Z,70.53
2023-03-24T20:17:48.886Z,70.50
2023-03-24T20:20:17.731Z,70.76
2023-03-24T20:22:48.660Z,70.85
2023-03-24T20:25:17.492Z,71.09
2023-03-24T20:27:47.809Z,70.92
2023-03-24T20:30:17.666Z,71.62
2023-03-24T20:32:44.360Z,71.44
2023-03-24T20:35:11.753Z,71.46
2023-03-24T20:37:38.232Z,71.50
2023-03-24T20:40:06.676Z,71.50
2023-03-24T20:42:33.625Z,71.57
2023-03-24T20:45:01.506Z,71.41
2023-03-24T20:47:28.066Z,71.26
2023-03-24T20:49:54.604Z,71.34
2023-03-24T20:52:22.884Z,71.32
2023-03-24T20:54:50.505Z,71.53
2023-03-24T20:57:18.025Z,71.73
2023-03-24T20:59:46.754Z,71.95
2023-03-24T21:02:13.738Z,72.14
2023-03-24T21:04:40.322Z,72.29
2023-03-24T21:07:06.778Z,73.11
2023-03-24T21:09:33.286Z,73.41
2023-03-24T21:12:01.071Z,73.67
2023-03-24T21:14:27.762Z,73.53
2023-03-24T21:16:54.244Z,74.13
2023-03-24T21:19:22.756Z,74.47
2023-03-24T21:21:49.662Z,74.75
2023-03-24T21:24:17.453Z,74.74
2023-03-24T21:26:46.159Z,75.14
2023-03-24T21:29:13.074Z,75.58
2023-03-24T21:31:41.597Z,75.60
2023-03-24T21:34:08.404Z,75.88
2023-03-24T21:36:38.212Z,75.70
2023-03-24T21:39:06.833Z,75.85
2023-03-24T21:41:33.258Z,75.77
2023-03-24T21:44:00.848Z,75.91
2023-03-24T21:46:27.980Z,76.19
2023-03-24T21:48:55.947Z,76.60
2023-03-24T21:51:25.278Z,76.65
2023-03-24T21:53:56.641Z,76.64
2023-03-24T21:56:23.447Z,76.99
2023-03-24T21:58:52.133Z,77.04
2023-03-24T22:01:18.688Z,76.82
2023-03-24T22:03:46.628Z,76.92
2023-03-24T22:06:13.594Z,77.44
2023-03-24T22:08:43.563Z,77.71
2023-03-24T22:11:10.670Z,77.83
2023-03-24T22:13:39.006Z,78.04
2023-03-24T22:16:06.618Z,77.59
2023-03-24T22:18:34.510Z,78.04
2023-03-24T22:21:06.975Z,78.11
2023-03-24T22:23:37.715Z,78.13
2023-03-24T22:26:07.749Z,78.05
2023-03-24T22:28:35.801Z,78.15
2023-03-24T22:31:05.038Z,78.52
2023-03-24T22:33:31.977Z,78.43
2023-03-24T22:35:59.526Z,78.83
2023-03-24T22:38:26.691Z,79.30
2023-03-24T22:41:02.129Z,79.68
2023-03-24T22:43:29.521Z,79.67
2023-03-24T22:45:56.469Z,79.21
2023-03-24T22:48:23.509Z,79.63
2023-03-24T22:50:50.202Z,79.66
2023-03-24T22:53:17.135Z,80.36
2023-03-24T22:55:44.864Z,80.72
2023-03-24T22:58:13.304Z,81.17
2023-03-24T23:00:44.390Z,81.69
2023-03-24T23:03:11.281Z,82.20
2023-03-24T23:05:47.812Z,83.33
2023-03-24T23:08:17.648Z,83.12
2023-03-24T23:10:45.529Z,83.26
2023-03-24T23:13:12.209Z,84.21
2023-03-24T23:15:40.078Z,84.48
2023-03-24T23:18:06.794Z,84.67
2023-03-24T23:20:33.397Z,85.34
2023-03-24T23:23:01.217Z,85.57
2023-03-24T23:25:30.794Z,85.88
2023-03-24T23:27:57.799Z,86.45
2023-03-24T23:30:24.525Z,87.05
2023-03-24T23:32:51.041Z,87.23
2023-03-24T23:35:17.699Z,87.63
2023-03-24T23:37:44.251Z,87.99
2023-03-24T23:40:14.598Z,88.06
2023-03-24T23:42:46.811Z,88.41
2023-03-24T23:45:18.090Z,88.44
2023-03-24T23:47:47.430Z,88.27
2023-03-24T23:50:17.282Z,87.88
2023-03-24T23:52:46.873Z,87.72
2023-03-24T23:55:14.949Z,87.65
2023-03-24T23:57:42.492Z,87.36
